createdAt,value
2019-03-19T00:02:05.347Z,1.80
2019-03-19T00:04:32.859Z,1.80
2019-03-19T00:07:00.553Z,1.80
2019-03-19T00:09:27.852Z,1.80
2019-03-19T00:11:57.733Z,1.60
2019-03-19T00:14:24.238Z,1.70
2019-03-19T00:16:51.696Z,1.60
2019-03-19T00:19:19.266Z,1.60
2019-03-19T00:21:47.829Z,1.70
2019-03-19T00:24:15.647Z,1.70
2019-03-19T00:26:43.105Z,1.60
2019-03-19T00:29:12.031Z,1.60
2019-03-19T00:31:40.308Z,1.60
2019-03-19T00:34:09.974Z,1.50
2019-03-19T00:36:39.479Z,1.50
2019-03-19T00:39:07.673Z,1.50
2019-03-19T00:41:36.948Z,1.50
2019-03-19T00:44:04.822Z,1.50
2019-03-19T00:46:33.294Z,1.50
2019-03-19T00:49:01.286Z,1.50
2019-03-19T00:51:29.165Z,1.50
2019-03-19T00:53:57.076Z,1.60
2019-03-19T00:56:26.396Z,1.60
2019-03-19T00:58:54.686Z,1.70
2019-03-19T01:01:22.756Z,1.70
2019-03-19T01:03:50.194Z,1.70
2019-03-19T01:06:18.607Z,1.60
2019-03-19T01:08:45.992Z,1.60
2019-03-19T01:11:13.373Z,1.60
2019-03-19T01:13:41.093Z,1.60
2019-03-19T01:16:08.965Z,1.60
2019-03-19T01:18:37.520Z,1.40
2019-03-19T01:21:06.404Z,1.30
2019-03-19T01:23:34.307Z,1.40
2019-03-19T01:26:01.696Z,1.40
2019-03-19T01:28:31.040Z,1.40
2019-03-19T01:30:59.747Z,1.30
2019-03-19T01:33:27.299Z,1.20
2019-03-19T01:35:58.945Z,1.20
2019-03-19T01:38:26.314Z,1.00
2019-03-19T01:40:53.748Z,0.80
2019-03-19T01:43:23.834Z,0.70
2019-03-19T01:45:51.975Z,0.70
2019-03-19T01:48:18.849Z,0.80
2019-03-19T01:50:45.642Z,0.80
2019-03-19T01:53:12.469Z,0.80
2019-03-19T01:55:39.246Z,0.90
2019-03-19T01:58:06.144Z,0.90
2019-03-19T02:00:32.969Z,1.00
2019-03-19T02:02:59.805Z,1.00
2019-03-19T02:05:26.620Z,1.00
2019-03-19T02:07:53.408Z,1.00
2019-03-19T02:10:20.236Z,1.00
2019-03-19T02:12:47.097Z,1.00
2019-03-19T02:15:17.357Z,1.00
2019-03-19T02:17:44.186Z,0.90
2019-03-19T02:20:17.323Z,0.90
2019-03-19T02:22:44.098Z,0.80
2019-03-19T02:25:11.028Z,0.80
2019-03-19T02:27:37.945Z,0.80
2019-03-19T02:30:07.732Z,0.70
2019-03-19T02:32:34.553Z,0.60
2019-03-19T02:35:01.401Z,0.50
2019-03-19T02:37:28.267Z,0.50
2019-03-19T02:39:55.086Z,0.60
2019-03-19T02:42:21.910Z,0.60
2019-03-19T02:44:48.710Z,0.70
2019-03-19T02:47:15.541Z,0.70
2019-03-19T02:49:42.364Z,0.60
2019-03-19T02:52:09.149Z,0.50
2019-03-19T02:54:35.965Z,0.40
2019-03-19T02:57:02.835Z,0.40
2019-03-19T02:59:29.623Z,0.50
2019-03-19T03:01:56.445Z,0.50
2019-03-19T03:04:23.269Z,0.60
2019-03-19T03:06:50.060Z,0.70
2019-03-19T03:09:16.879Z,0.70
2019-03-19T03:11:43.873Z,0.70
2019-03-19T03:14:10.733Z,0.70
2019-03-19T03:16:37.554Z,0.60
2019-03-19T03:19:04.354Z,0.60
2019-03-19T03:21:34.493Z,0.60
2019-03-19T03:23:59.769Z,0.50
2019-03-19T03:26:26.585Z,0.50
2019-03-19T03:28:53.405Z,0.50
2019-03-19T03:31:20.216Z,0.50
2019-03-19T03:33:47.074Z,0.60
2019-03-19T03:36:13.920Z,0.50
2019-03-19T03:38:40.753Z,0.60
2019-03-19T03:41:07.662Z,0.60
2019-03-19T03:43:34.450Z,0.60
2019-03-19T03:46:01.284Z,0.70
2019-03-19T03:48:28.069Z,0.60
2019-03-19T03:50:54.901Z,0.60
2019-03-19T03:53:21.686Z,0.50
2019-03-19T03:55:48.517Z,0.60
2019-03-19T03:58:15.345Z,0.60
2019-03-19T04:00:42.136Z,0.70
2019-03-19T04:03:08.954Z,0.80
2019-03-19T04:05:35.724Z,0.80
2019-03-19T04:08:02.563Z,0.90
2019-03-19T04:10:29.395Z,0.90
2019-03-19T04:12:56.161Z,0.90
2019-03-19T04:15:23.053Z,0.90
2019-03-19T04:17:49.968Z,1.00
2019-03-19T04:20:17.876Z,1.00
2019-03-19T04:22:44.773Z,1.00
2019-03-19T04:25:12.137Z,0.90
2019-03-19T04:27:40.693Z,0.90
2019-03-19T04:30:13.926Z,1.00
2019-03-19T04:32:40.767Z,0.90
2019-03-19T04:35:07.582Z,0.90
2019-03-19T04:37:34.366Z,0.90
2019-03-19T04:40:01.199Z,0.90
2019-03-19T04:42:28.020Z,1.00
2019-03-19T04:44:54.801Z,1.00
2019-03-19T04:47:21.616Z,0.90
2019-03-19T04:49:48.401Z,1.00
2019-03-19T04:52:15.259Z,0.90
2019-03-19T04:54:42.015Z,0.90
2019-03-19T04:57:08.842Z,0.90
2019-03-19T04:59:35.630Z,1.00
2019-03-19T05:02:02.454Z,0.90
2019-03-19T05:04:29.277Z,0.90
2019-03-19T05:06:56.061Z,0.90
2019-03-19T05:09:22.893Z,0.90
2019-03-19T05:11:49.697Z,0.90
2019-03-19T05:14:16.516Z,1.00
2019-03-19T05:16:43.341Z,1.00
2019-03-19T05:19:10.121Z,0.80
2019-03-19T05:21:36.949Z,0.80
2019-03-19T05:24:03.734Z,0.80
2019-03-19T05:26:30.581Z,0.80
2019-03-19T05:28:57.414Z,0.70
2019-03-19T05:31:24.206Z,0.80
2019-03-19T05:33:51.033Z,0.80
2019-03-19T05:36:18.349Z,0.90
2019-03-19T05:38:45.754Z,0.90
2019-03-19T05:41:12.756Z,0.90
2019-03-19T05:43:40.062Z,1.00
2019-03-19T05:46:06.923Z,1.10
2019-03-19T05:48:33.855Z,1.20
2019-03-19T05:51:00.802Z,1.20
2019-03-19T05:53:27.713Z,1.20
2019-03-19T05:55:54.647Z,1.20
2019-03-19T05:58:21.485Z,1.30
2019-03-19T06:00:48.421Z,1.30
2019-03-19T06:03:15.371Z,1.40
2019-03-19T06:05:42.266Z,1.40
2019-03-19T06:08:09.178Z,1.50
2019-03-19T06:10:36.083Z,1.70
2019-03-19T06:13:03.333Z,1.90
2019-03-19T06:15:30.289Z,2.00
2019-03-19T06:17:57.148Z,2.00
2019-03-19T06:20:24.054Z,2.00
2019-03-19T06:22:50.891Z,2.10
2019-03-19T06:25:17.710Z,2.10
2019-03-19T06:27:44.517Z,2.20
2019-03-19T06:30:16.965Z,2.30
2019-03-19T06:32:43.920Z,2.40
2019-03-19T06:35:11.652Z,2.40
2019-03-19T06:37:38.681Z,2.40
2019-03-19T06:40:09.181Z,2.50
2019-03-19T06:42:35.977Z,2.60
2019-03-19T06:45:04.805Z,2.60
2019-03-19T06:47:31.585Z,2.70
2019-03-19T06:49:58.997Z,2.70
2019-03-19T06:52:25.786Z,2.70
2019-03-19T06:54:52.602Z,2.80
2019-03-19T06:57:19.433Z,2.80
2019-03-19T06:59:46.242Z,3.00
2019-03-19T07:02:13.056Z,3.10
2019-03-19T07:04:40.122Z,3.20
2019-03-19T07:07:06.970Z,3.40
2019-03-19T07:09:33.887Z,3.60
2019-03-19T07:12:01.684Z,3.90
2019-03-19T07:14:28.725Z,4.10
2019-03-19T07:16:55.510Z,4.30
2019-03-19T07:19:22.330Z,4.60
2019-03-19T07:21:49.173Z,4.80
2019-03-19T07:24:16.029Z,5.10
2019-03-19T07:26:42.858Z,5.50
2019-03-19T07:29:09.689Z,5.60
2019-03-19T07:31:36.505Z,6.00
2019-03-19T07:34:03.294Z,6.50
2019-03-19T07:36:30.133Z,6.50
2019-03-19T07:38:57.016Z,6.70
2019-03-19T07:41:23.823Z,6.80
2019-03-19T07:43:50.631Z,6.60
2019-03-19T07:46:17.408Z,6.40
2019-03-19T07:48:44.197Z,6.60
2019-03-19T07:51:11.021Z,6.70
2019-03-19T07:53:37.861Z,7.00
2019-03-19T07:56:04.632Z,7.10
2019-03-19T07:58:44.303Z,6.60
2019-03-19T08:01:00.054Z,6.40
2019-03-19T08:03:26.877Z,6.40
2019-03-19T08:05:53.698Z,6.60
2019-03-19T08:08:20.477Z,6.90
2019-03-19T08:10:47.306Z,7.00
2019-03-19T08:13:14.088Z,7.10
2019-03-19T08:15:40.914Z,7.00
2019-03-19T08:18:07.689Z,7.10
2019-03-19T08:20:36.069Z,7.30
2019-03-19T08:23:02.998Z,7.50
2019-03-19T08:25:29.773Z,7.40
2019-03-19T08:27:56.593Z,7.30
2019-03-19T08:30:26.662Z,7.40
2019-03-19T08:32:53.472Z,7.30
2019-03-19T08:35:20.366Z,7.30
2019-03-19T08:37:47.185Z,7.30
2019-03-19T08:40:17.536Z,7.30
2019-03-19T08:42:44.352Z,7.30
2019-03-19T08:45:25.320Z,7.10
2019-03-19T08:47:52.142Z,7.20
2019-03-19T08:50:20.016Z,6.90
2019-03-19T08:52:46.838Z,6.60
2019-03-19T08:55:13.662Z,6.60
2019-03-19T08:57:40.452Z,6.70
2019-03-19T09:00:18.571Z,7.00
2019-03-19T09:02:45.363Z,7.20
2019-03-19T09:05:12.672Z,7.40
2019-03-19T09:07:39.503Z,7.10
2019-03-19T09:10:11.905Z,7.40
2019-03-19T09:12:38.726Z,7.50
2019-03-19T09:15:14.341Z,7.70
2019-03-19T09:17:41.161Z,7.80
2019-03-19T09:20:10.853Z,8.00
2019-03-19T09:22:38.379Z,8.10
2019-03-19T09:25:06.566Z,8.20
2019-03-19T09:27:33.391Z,8.00
2019-03-19T09:30:00.209Z,8.30
2019-03-19T09:32:27.096Z,8.40
2019-03-19T09:34:53.853Z,8.20
2019-03-19T09:37:20.637Z,7.80
2019-03-19T09:39:47.455Z,7.80
2019-03-19T09:42:14.250Z,7.60
2019-03-19T09:44:41.037Z,7.70
2019-03-19T09:47:07.867Z,8.10
2019-03-19T09:49:34.649Z,8.40
2019-03-19T09:52:01.457Z,8.40
2019-03-19T09:54:28.245Z,8.80
2019-03-19T09:56:55.056Z,9.10
2019-03-19T09:59:27.082Z,9.10
2019-03-19T10:01:50.460Z,8.90
2019-03-19T10:04:17.273Z,7.90
2019-03-19T10:06:44.070Z,7.20
2019-03-19T10:09:10.896Z,6.90
2019-03-19T10:11:37.713Z,6.90
2019-03-19T10:14:04.497Z,7.10
2019-03-19T10:16:31.328Z,7.70
2019-03-19T10:18:58.113Z,8.40
2019-03-19T10:21:25.873Z,8.90
2019-03-19T10:23:52.657Z,9.30
2019-03-19T10:26:19.503Z,9.60
2019-03-19T10:28:46.277Z,8.60
2019-03-19T10:31:13.133Z,8.30
2019-03-19T10:33:39.912Z,8.40
2019-03-19T10:36:06.797Z,8.30
2019-03-19T10:38:33.609Z,8.10
2019-03-19T10:41:00.715Z,7.90
2019-03-19T10:43:27.511Z,7.10
2019-03-19T10:45:54.300Z,7.00
2019-03-19T10:48:21.122Z,7.00
2019-03-19T10:50:48.488Z,7.00
2019-03-19T10:53:15.273Z,7.20
2019-03-19T10:55:42.087Z,7.40
2019-03-19T10:58:11.346Z,7.30
2019-03-19T11:00:37.510Z,7.20
2019-03-19T11:03:04.289Z,7.20
2019-03-19T11:05:31.074Z,7.50
2019-03-19T11:07:57.905Z,7.70
2019-03-19T11:10:24.717Z,8.00
2019-03-19T11:12:51.496Z,8.20
2019-03-19T11:15:19.417Z,8.40
2019-03-19T11:17:46.298Z,8.40
2019-03-19T11:20:15.319Z,8.40
2019-03-19T11:22:42.096Z,8.40
2019-03-19T11:25:11.513Z,8.40
2019-03-19T11:27:38.332Z,8.70
2019-03-19T11:30:14.273Z,9.30
2019-03-19T11:32:41.132Z,9.80
2019-03-19T11:35:09.116Z,10.30
2019-03-19T11:37:35.932Z,10.30
2019-03-19T11:40:05.934Z,10.30
2019-03-19T11:42:32.743Z,10.20
2019-03-19T11:44:59.630Z,10.40
2019-03-19T11:47:26.577Z,10.90
2019-03-19T11:49:53.519Z,11.20
2019-03-19T11:52:20.463Z,11.10
2019-03-19T11:54:47.408Z,10.60
2019-03-19T11:57:15.375Z,10.30
2019-03-19T11:59:42.319Z,10.10
2019-03-19T12:02:09.161Z,10.10
2019-03-19T12:04:36.106Z,9.70
2019-03-19T12:07:03.152Z,9.20
2019-03-19T12:09:30.097Z,8.70
2019-03-19T12:11:57.041Z,8.20
2019-03-19T12:14:24.088Z,7.80
2019-03-19T12:16:51.039Z,7.50
2019-03-19T12:19:17.976Z,7.20
2019-03-19T12:21:44.920Z,7.10
2019-03-19T12:24:11.866Z,6.80
2019-03-19T12:26:38.911Z,6.60
2019-03-19T12:29:05.856Z,6.50
2019-03-19T12:31:32.811Z,6.20
2019-03-19T12:33:59.747Z,6.20
2019-03-19T12:36:26.688Z,6.10
2019-03-19T12:38:53.633Z,6.10
2019-03-19T12:41:20.576Z,6.10
2019-03-19T12:43:47.419Z,6.30
2019-03-19T12:46:14.363Z,6.30
2019-03-19T12:48:41.307Z,6.40
2019-03-19T12:51:08.252Z,6.40
2019-03-19T12:53:35.197Z,6.40
2019-03-19T12:56:02.015Z,6.50
2019-03-19T12:58:28.852Z,6.90
2019-03-19T13:00:55.702Z,7.00
2019-03-19T13:03:22.557Z,7.20
2019-03-19T13:05:49.336Z,7.30
2019-03-19T13:08:16.166Z,7.40
2019-03-19T13:10:42.965Z,7.70
2019-03-19T13:13:09.774Z,7.70
2019-03-19T13:15:36.553Z,7.80
2019-03-19T13:18:03.583Z,7.80
2019-03-19T13:20:31.469Z,8.20
2019-03-19T13:22:58.250Z,8.80
2019-03-19T13:25:25.516Z,9.40
2019-03-19T13:27:52.301Z,9.50
2019-03-19T13:30:23.622Z,9.20
2019-03-19T13:32:50.449Z,9.50
2019-03-19T13:35:17.233Z,9.80
2019-03-19T13:37:44.063Z,9.40
2019-03-19T13:40:13.661Z,9.50
2019-03-19T13:42:40.489Z,9.70
2019-03-19T13:45:14.304Z,9.60
2019-03-19T13:47:41.138Z,9.80
2019-03-19T13:50:10.270Z,9.90
2019-03-19T13:52:37.061Z,9.60
2019-03-19T13:55:10.004Z,9.30
2019-03-19T13:57:36.792Z,9.10
2019-03-19T14:00:07.106Z,8.70
2019-03-19T14:02:33.896Z,8.60
2019-03-19T14:05:00.788Z,8.60
2019-03-19T14:07:27.660Z,8.80
2019-03-19T14:09:54.452Z,9.10
2019-03-19T14:12:21.285Z,9.30
2019-03-19T14:14:48.068Z,9.50
2019-03-19T14:17:14.905Z,9.80
2019-03-19T14:19:41.682Z,10.00
2019-03-19T14:22:08.505Z,10.00
2019-03-19T14:24:35.793Z,9.90
2019-03-19T14:27:02.650Z,10.10
2019-03-19T14:29:29.434Z,10.30
2019-03-19T14:31:56.220Z,9.70
2019-03-19T14:34:23.047Z,9.30
2019-03-19T14:36:49.879Z,9.00
2019-03-19T14:39:16.662Z,8.50
2019-03-19T14:41:45.554Z,8.30
2019-03-19T14:44:12.102Z,8.00
2019-03-19T14:46:38.929Z,7.70
2019-03-19T14:49:05.716Z,7.30
2019-03-19T14:51:32.543Z,7.00
2019-03-19T14:53:59.369Z,6.80
2019-03-19T14:56:26.166Z,7.00
2019-03-19T14:58:52.985Z,7.50
2019-03-19T15:01:19.961Z,8.00
2019-03-19T15:03:46.893Z,7.60
2019-03-19T15:06:13.718Z,7.40
2019-03-19T15:08:40.506Z,7.60
2019-03-19T15:11:07.338Z,7.50
2019-03-19T15:13:34.120Z,7.80
2019-03-19T15:16:00.950Z,8.10
2019-03-19T15:18:27.783Z,8.20
2019-03-19T15:20:54.570Z,8.10
2019-03-19T15:23:21.398Z,7.80
2019-03-19T15:25:48.178Z,7.70
2019-03-19T15:28:15.041Z,7.40
2019-03-19T15:30:41.842Z,7.30
2019-03-19T15:33:08.665Z,7.50
2019-03-19T15:35:35.470Z,7.60
2019-03-19T15:38:02.281Z,7.60
2019-03-19T15:40:29.076Z,7.80
2019-03-19T15:42:55.917Z,7.80
2019-03-19T15:45:28.710Z,7.80
2019-03-19T15:47:55.532Z,7.90
2019-03-19T15:50:22.374Z,8.10
2019-03-19T15:52:49.182Z,7.80
2019-03-19T15:55:16.006Z,7.70
2019-03-19T15:57:43.025Z,7.70
2019-03-19T16:00:14.558Z,7.20
2019-03-19T16:02:41.377Z,7.20
2019-03-19T16:05:10.066Z,6.90
2019-03-19T16:07:36.892Z,6.60
2019-03-19T16:10:06.180Z,6.70
2019-03-19T16:12:33.059Z,6.50
2019-03-19T16:14:59.824Z,6.50
2019-03-19T16:17:26.609Z,6.50
2019-03-19T16:19:53.436Z,6.50
2019-03-19T16:22:20.249Z,6.60
2019-03-19T16:24:47.085Z,6.70
2019-03-19T16:27:13.938Z,6.90
2019-03-19T16:29:40.777Z,6.70
2019-03-19T16:32:07.561Z,6.60
2019-03-19T16:34:34.390Z,6.60
2019-03-19T16:37:01.233Z,6.60
2019-03-19T16:39:28.021Z,6.60
2019-03-19T16:41:54.845Z,6.80
2019-03-19T16:44:21.632Z,6.60
2019-03-19T16:46:48.480Z,6.50
2019-03-19T16:49:15.293Z,6.50
2019-03-19T16:51:42.093Z,6.50
2019-03-19T16:54:08.929Z,6.30
2019-03-19T16:56:35.716Z,6.20
2019-03-19T16:59:02.545Z,6.20
2019-03-19T17:01:29.337Z,6.10
2019-03-19T17:03:56.157Z,6.00
2019-03-19T17:06:22.982Z,5.90
2019-03-19T17:08:49.773Z,5.80
2019-03-19T17:11:16.597Z,5.70
2019-03-19T17:13:43.385Z,5.60
2019-03-19T17:16:10.204Z,5.50
2019-03-19T17:18:36.997Z,5.50
2019-03-19T17:21:03.816Z,5.50
2019-03-19T17:23:31.550Z,5.40
2019-03-19T17:25:58.341Z,5.40
2019-03-19T17:28:25.249Z,5.30
2019-03-19T17:30:52.080Z,5.30
2019-03-19T17:33:18.868Z,5.30
2019-03-19T17:35:45.695Z,5.30
2019-03-19T17:38:12.582Z,5.20
2019-03-19T17:40:41.523Z,5.20
2019-03-19T17:43:08.044Z,5.10
2019-03-19T17:45:34.834Z,5.00
2019-03-19T17:48:01.660Z,5.00
2019-03-19T17:50:33.714Z,5.00
2019-03-19T17:53:00.536Z,5.00
2019-03-19T17:55:27.332Z,4.90
2019-03-19T17:57:54.260Z,4.90
2019-03-19T18:00:23.014Z,4.90
2019-03-19T18:02:49.881Z,4.90
2019-03-19T18:05:16.715Z,4.80
2019-03-19T18:07:46.289Z,4.80
2019-03-19T18:10:13.774Z,4.70
2019-03-19T18:12:40.762Z,4.60
2019-03-19T18:15:13.028Z,4.60
2019-03-19T18:17:39.824Z,4.60
2019-03-19T18:20:10.729Z,4.50
2019-03-19T18:22:37.518Z,4.50
2019-03-19T18:25:06.386Z,4.50
2019-03-19T18:27:33.175Z,4.40
2019-03-19T18:30:00.053Z,4.30
2019-03-19T18:32:35.118Z,4.20
2019-03-19T18:34:55.967Z,4.20
2019-03-19T18:37:22.764Z,4.20
2019-03-19T18:39:49.585Z,4.10
2019-03-19T18:42:16.377Z,4.00
2019-03-19T18:44:43.213Z,3.90
2019-03-19T18:47:12.235Z,3.80
2019-03-19T18:49:39.325Z,3.90
2019-03-19T18:52:06.282Z,3.90
2019-03-19T18:54:33.145Z,3.90
2019-03-19T18:57:00.041Z,3.90
2019-03-19T18:59:26.922Z,3.80
2019-03-19T19:01:53.762Z,3.70
2019-03-19T19:04:20.550Z,3.70
2019-03-19T19:06:47.465Z,3.60
2019-03-19T19:09:14.295Z,3.70
2019-03-19T19:11:41.097Z,3.70
2019-03-19T19:14:09.229Z,3.60
2019-03-19T19:16:36.005Z,3.50
2019-03-19T19:19:02.829Z,3.30
2019-03-19T19:21:29.649Z,3.30
2019-03-19T19:23:56.440Z,3.30
2019-03-19T19:26:23.325Z,3.20
2019-03-19T19:28:50.228Z,3.10
2019-03-19T19:31:17.083Z,3.00
2019-03-19T19:33:43.878Z,2.90
2019-03-19T19:36:10.911Z,2.90
2019-03-19T19:38:37.789Z,2.90
2019-03-19T19:41:05.097Z,2.90
2019-03-19T19:43:31.879Z,2.90
2019-03-19T19:45:58.810Z,2.90
2019-03-19T19:48:25.603Z,2.90
2019-03-19T19:50:52.390Z,2.90
2019-03-19T19:53:19.210Z,2.90
2019-03-19T19:55:45.989Z,2.90
2019-03-19T19:58:12.817Z,2.90
2019-03-19T20:00:39.646Z,2.90
2019-03-19T20:03:12.276Z,2.90
2019-03-19T20:05:35.340Z,2.80
2019-03-19T20:08:02.132Z,2.90
2019-03-19T20:10:28.946Z,2.90
2019-03-19T20:12:55.766Z,2.80
2019-03-19T20:15:23.085Z,2.80
2019-03-19T20:17:49.921Z,2.80
2019-03-19T20:20:19.250Z,2.60
2019-03-19T20:22:47.848Z,2.60
2019-03-19T20:25:14.661Z,2.60
2019-03-19T20:27:41.477Z,2.60
2019-03-19T20:30:13.721Z,2.60
2019-03-19T20:32:40.905Z,2.40
2019-03-19T20:35:09.496Z,2.50
2019-03-19T20:37:37.572Z,2.50
2019-03-19T20:40:07.501Z,2.50
2019-03-19T20:42:34.321Z,2.60
2019-03-19T20:45:01.191Z,2.60
2019-03-19T20:47:27.981Z,2.60
2019-03-19T20:49:54.805Z,2.60
2019-03-19T20:52:21.589Z,2.60
2019-03-19T20:54:48.411Z,2.60
2019-03-19T20:57:15.233Z,2.50
2019-03-19T20:59:42.020Z,2.50
2019-03-19T21:02:08.839Z,2.40
2019-03-19T21:04:35.618Z,2.30
2019-03-19T21:07:02.449Z,2.10
2019-03-19T21:09:29.230Z,2.10
2019-03-19T21:11:56.048Z,2.10
2019-03-19T21:14:22.835Z,2.00
2019-03-19T21:16:49.652Z,2.00
2019-03-19T21:19:16.447Z,2.00
2019-03-19T21:21:43.260Z,2.00
2019-03-19T21:24:10.041Z,2.00
2019-03-19T21:26:36.875Z,2.00
2019-03-19T21:29:03.792Z,2.00
2019-03-19T21:31:30.617Z,1.90
2019-03-19T21:33:57.446Z,1.70
2019-03-19T21:36:24.220Z,1.70
2019-03-19T21:38:51.049Z,1.80
2019-03-19T21:41:17.829Z,1.90
2019-03-19T21:43:44.648Z,2.00
2019-03-19T21:46:11.468Z,2.00
2019-03-19T21:48:38.267Z,2.10
2019-03-19T21:51:05.083Z,2.20
2019-03-19T21:53:31.877Z,2.10
2019-03-19T21:55:58.737Z,2.00
2019-03-19T21:58:25.565Z,2.00
2019-03-19T22:00:52.346Z,2.10
2019-03-19T22:03:19.165Z,1.90
2019-03-19T22:05:45.940Z,1.90
2019-03-19T22:08:12.828Z,1.80
2019-03-19T22:10:39.645Z,1.70
2019-03-19T22:13:06.433Z,1.60
2019-03-19T22:15:33.249Z,1.60
2019-03-19T22:18:00.114Z,1.70
2019-03-19T22:20:26.931Z,1.70
2019-03-19T22:22:53.718Z,1.80
2019-03-19T22:25:20.536Z,1.90
2019-03-19T22:27:47.321Z,2.00
2019-03-19T22:30:18.362Z,2.10
2019-03-19T22:32:45.176Z,2.20
2019-03-19T22:35:12.193Z,2.20
2019-03-19T22:37:38.974Z,2.30
2019-03-19T22:40:11.304Z,2.20
2019-03-19T22:42:38.088Z,2.20
2019-03-19T22:45:08.104Z,2.20
2019-03-19T22:47:34.889Z,2.30
2019-03-19T22:50:01.708Z,2.20
2019-03-19T22:52:28.509Z,2.00
2019-03-19T22:54:55.330Z,1.90
2019-03-19T22:57:23.099Z,1.80
2019-03-19T22:59:53.808Z,1.70
2019-03-19T23:02:21.474Z,1.60
2019-03-19T23:04:49.029Z,1.60
2019-03-19T23:07:16.593Z,1.60
2019-03-19T23:09:44.092Z,1.70
2019-03-19T23:12:12.534Z,1.80
2019-03-19T23:14:40.387Z,1.90
2019-03-19T23:17:07.816Z,1.80
2019-03-19T23:19:35.369Z,1.70
2019-03-19T23:22:05.126Z,1.70
2019-03-19T23:24:33.811Z,1.80
2019-03-19T23:27:04.067Z,1.70
2019-03-19T23:29:33.283Z,1.70
2019-03-19T23:32:00.945Z,1.80
2019-03-19T23:34:38.198Z,1.80
2019-03-19T23:37:00.512Z,1.90
2019-03-19T23:39:28.478Z,2.00
2019-03-19T23:41:56.048Z,2.00
2019-03-19T23:44:23.948Z,2.00
2019-03-19T23:46:57.594Z,2.20
2019-03-19T23:49:24.790Z,2.20
2019-03-19T23:51:54.040Z,1.90
2019-03-19T23:54:21.714Z,1.60
2019-03-19T23:56:49.580Z,1.60
2019-03-19T23:59:18.701Z,1.80
